sensor_id;sensor_type;location;lat;lon;timestamp;P1;durP1;ratioP1;P2;durP2;ratioP2
72156;SDS011;60035;52.122;5.406;2024-02-16T00:01:41;6.90;;;2.78;;
72156;SDS011;60035;52.122;5.406;2024-02-16T00:04:13;8.48;;;2.60;;
72156;SDS011;60035;52.122;5.406;2024-02-16T00:06:44;6.70;;;2.97;;
72156;SDS011;60035;52.122;5.406;2024-02-16T00:09:16;6.57;;;3.00;;
72156;SDS011;60035;52.122;5.406;2024-02-16T00:11:50;7.60;;;2.80;;
72156;SDS011;60035;52.122;5.406;2024-02-16T00:14:22;6.97;;;3.13;;
72156;SDS011;60035;52.122;5.406;2024-02-16T00:16:53;7.75;;;2.50;;
72156;SDS011;60035;52.122;5.406;2024-02-16T00:19:25;7.07;;;2.85;;
72156;SDS011;60035;52.122;5.406;2024-02-16T00:21:56;6.85;;;3.10;;
72156;SDS011;60035;52.122;5.406;2024-02-16T00:24:28;8.55;;;2.63;;
72156;SDS011;60035;52.122;5.406;2024-02-16T00:27:02;10.77;;;3.00;;
72156;SDS011;60035;52.122;5.406;2024-02-16T00:29:35;8.23;;;2.47;;
72156;SDS011;60035;52.122;5.406;2024-02-16T00:32:07;10.15;;;3.75;;
72156;SDS011;60035;52.122;5.406;2024-02-16T00:34:39;9.15;;;3.40;;
72156;SDS011;60035;52.122;5.406;2024-02-16T00:37:11;6.85;;;3.45;;
72156;SDS011;60035;52.122;5.406;2024-02-16T00:39:42;9.50;;;2.60;;
72156;SDS011;60035;52.122;5.406;2024-02-16T00:42:16;8.82;;;3.03;;
72156;SDS011;60035;52.122;5.406;2024-02-16T00:44:48;9.57;;;3.75;;
72156;SDS011;60035;52.122;5.406;2024-02-16T00:47:17;7.43;;;3.33;;
72156;SDS011;60035;52.122;5.406;2024-02-16T00:49:50;6.70;;;2.80;;
72156;SDS011;60035;52.122;5.406;2024-02-16T00:52:22;7.60;;;2.50;;
72156;SDS011;60035;52.122;5.406;2024-02-16T00:54:54;9.00;;;3.17;;
72156;SDS011;60035;52.122;5.406;2024-02-16T00:57:28;7.35;;;2.90;;
72156;SDS011;60035;52.122;5.406;2024-02-16T01:00:00;9.05;;;3.13;;
72156;SDS011;60035;52.122;5.406;2024-02-16T01:02:33;8.80;;;2.50;;
72156;SDS011;60035;52.122;5.406;2024-02-16T01:05:04;11.02;;;3.35;;
72156;SDS011;60035;52.122;5.406;2024-02-16T01:07:38;9.23;;;3.38;;
72156;SDS011;60035;52.122;5.406;2024-02-16T01:10:10;5.97;;;2.90;;
72156;SDS011;60035;52.122;5.406;2024-02-16T01:12:45;7.75;;;3.30;;
72156;SDS011;60035;52.122;5.406;2024-02-16T01:15:16;6.75;;;2.72;;
72156;SDS011;60035;52.122;5.406;2024-02-16T01:17:47;8.55;;;2.72;;
72156;SDS011;60035;52.122;5.406;2024-02-16T01:20:19;7.88;;;3.53;;
72156;SDS011;60035;52.122;5.406;2024-02-16T01:22:51;6.88;;;3.28;;
72156;SDS011;60035;52.122;5.406;2024-02-16T01:25:22;8.05;;;3.03;;
72156;SDS011;60035;52.122;5.406;2024-02-16T01:27:56;8.48;;;3.50;;
72156;SDS011;60035;52.122;5.406;2024-02-16T01:30:27;6.72;;;2.78;;
72156;SDS011;60035;52.122;5.406;2024-02-16T01:32:59;9.15;;;3.33;;
72156;SDS011;60035;52.122;5.406;2024-02-16T01:35:30;6.07;;;2.58;;
72156;SDS011;60035;52.122;5.406;2024-02-16T01:38:01;7.18;;;3.45;;
72156;SDS011;60035;52.122;5.406;2024-02-16T01:40:33;6.93;;;2.75;;
72156;SDS011;60035;52.122;5.406;2024-02-16T01:43:07;6.95;;;2.72;;
72156;SDS011;60035;52.122;5.406;2024-02-16T01:45:38;7.32;;;3.67;;
72156;SDS011;60035;52.122;5.406;2024-02-16T01:48:10;7.75;;;2.85;;
72156;SDS011;60035;52.122;5.406;2024-02-16T01:50:43;9.23;;;3.35;;
72156;SDS011;60035;52.122;5.406;2024-02-16T01:53:15;6.93;;;3.25;;
72156;SDS011;60035;52.122;5.406;2024-02-16T01:55:47;8.73;;;3.30;;
72156;SDS011;60035;52.122;5.406;2024-02-16T01:58:22;7.35;;;2.95;;
72156;SDS011;60035;52.122;5.406;2024-02-16T02:00:55;8.18;;;3.40;;
72156;SDS011;60035;52.122;5.406;2024-02-16T02:03:26;7.03;;;3.25;;
72156;SDS011;60035;52.122;5.406;2024-02-16T02:05:59;7.10;;;3.13;;
72156;SDS011;60035;52.122;5.406;2024-02-16T02:08:31;7.72;;;3.10;;
72156;SDS011;60035;52.122;5.406;2024-02-16T02:11:02;9.05;;;3.35;;
72156;SDS011;60035;52.122;5.406;2024-02-16T02:13:37;9.38;;;3.05;;
72156;SDS011;60035;52.122;5.406;2024-02-16T02:16:09;7.05;;;2.67;;
72156;SDS011;60035;52.122;5.406;2024-02-16T02:18:41;10.35;;;3.00;;
72156;SDS011;60035;52.122;5.406;2024-02-16T02:21:13;8.90;;;3.67;;
72156;SDS011;60035;52.122;5.406;2024-02-16T02:23:47;7.95;;;2.70;;
72156;SDS011;60035;52.122;5.406;2024-02-16T02:26:19;7.68;;;3.10;;
72156;SDS011;60035;52.122;5.406;2024-02-16T02:28:51;6.70;;;2.53;;
72156;SDS011;60035;52.122;5.406;2024-02-16T02:31:22;7.90;;;2.75;;
72156;SDS011;60035;52.122;5.406;2024-02-16T02:33:53;7.70;;;2.97;;
72156;SDS011;60035;52.122;5.406;2024-02-16T02:36:25;8.50;;;2.85;;
72156;SDS011;60035;52.122;5.406;2024-02-16T02:38:59;9.18;;;3.85;;
72156;SDS011;60035;52.122;5.406;2024-02-16T02:41:30;7.90;;;2.58;;
72156;SDS011;60035;52.122;5.406;2024-02-16T02:44:02;7.18;;;2.75;;
72156;SDS011;60035;52.122;5.406;2024-02-16T02:46:33;8.07;;;2.47;;
72156;SDS011;60035;52.122;5.406;2024-02-16T02:49:04;6.97;;;2.58;;
72156;SDS011;60035;52.122;5.406;2024-02-16T02:51:36;6.78;;;2.22;;
72156;SDS011;60035;52.122;5.406;2024-02-16T02:54:10;8.73;;;3.55;;
72156;SDS011;60035;52.122;5.406;2024-02-16T02:56:42;7.25;;;2.97;;
72156;SDS011;60035;52.122;5.406;2024-02-16T02:59:13;9.25;;;3.05;;
72156;SDS011;60035;52.122;5.406;2024-02-16T03:01:45;6.30;;;3.10;;
72156;SDS011;60035;52.122;5.406;2024-02-16T03:04:16;7.72;;;3.35;;
72156;SDS011;60035;52.122;5.406;2024-02-16T03:06:48;7.70;;;2.33;;
72156;SDS011;60035;52.122;5.406;2024-02-16T03:09:25;9.65;;;3.78;;
72156;SDS011;60035;52.122;5.406;2024-02-16T03:11:56;7.50;;;2.80;;
72156;SDS011;60035;52.122;5.406;2024-02-16T03:14:29;7.32;;;3.17;;
72156;SDS011;60035;52.122;5.406;2024-02-16T03:17:01;8.65;;;3.05;;
72156;SDS011;60035;52.122;5.406;2024-02-16T03:19:32;7.68;;;3.17;;
72156;SDS011;60035;52.122;5.406;2024-02-16T03:22:04;8.20;;;3.33;;
72156;SDS011;60035;52.122;5.406;2024-02-16T03:24:38;6.28;;;2.45;;
72156;SDS011;60035;52.122;5.406;2024-02-16T03:27:09;10.20;;;3.00;;
72156;SDS011;60035;52.122;5.406;2024-02-16T03:29:41;6.75;;;2.60;;
72156;SDS011;60035;52.122;5.406;2024-02-16T03:32:13;7.20;;;2.78;;
72156;SDS011;60035;52.122;5.406;2024-02-16T03:34:44;7.15;;;2.88;;
72156;SDS011;60035;52.122;5.406;2024-02-16T03:37:16;7.20;;;2.92;;
72156;SDS011;60035;52.122;5.406;2024-02-16T03:39:50;7.97;;;3.17;;
72156;SDS011;60035;52.122;5.406;2024-02-16T03:42:21;8.35;;;3.15;;
72156;SDS011;60035;52.122;5.406;2024-02-16T03:44:52;6.97;;;3.65;;
72156;SDS011;60035;52.122;5.406;2024-02-16T03:47:25;8.52;;;2.70;;
72156;SDS011;60035;52.122;5.406;2024-02-16T03:49:56;8.57;;;3.10;;
72156;SDS011;60035;52.122;5.406;2024-02-16T03:52:28;7.07;;;3.35;;
72156;SDS011;60035;52.122;5.406;2024-02-16T03:55:00;8.68;;;3.35;;
72156;SDS011;60035;52.122;5.406;2024-02-16T03:57:32;8.82;;;3.53;;
72156;SDS011;60035;52.122;5.406;2024-02-16T04:00:04;12.10;;;3.10;;
72156;SDS011;60035;52.122;5.406;2024-02-16T04:02:43;7.30;;;2.78;;
72156;SDS011;60035;52.122;5.406;2024-02-16T04:05:15;7.97;;;2.80;;
72156;SDS011;60035;52.122;5.406;2024-02-16T04:07:46;8.25;;;2.75;;
72156;SDS011;60035;52.122;5.406;2024-02-16T04:10:20;7.35;;;2.83;;
72156;SDS011;60035;52.122;5.406;2024-02-16T04:12:52;7.43;;;2.60;;
72156;SDS011;60035;52.122;5.406;2024-02-16T04:15:23;7.03;;;2.75;;
72156;SDS011;60035;52.122;5.406;2024-02-16T04:17:55;9.13;;;4.10;;
72156;SDS011;60035;52.122;5.406;2024-02-16T04:20:27;8.63;;;2.70;;
72156;SDS011;60035;52.122;5.406;2024-02-16T04:22:58;7.30;;;2.67;;
72156;SDS011;60035;52.122;5.406;2024-02-16T04:25:32;8.65;;;3.25;;
72156;SDS011;60035;52.122;5.406;2024-02-16T04:28:04;7.10;;;3.40;;
72156;SDS011;60035;52.122;5.406;2024-02-16T04:30:37;9.13;;;2.78;;
72156;SDS011;60035;52.122;5.406;2024-02-16T04:33:08;7.35;;;2.60;;
72156;SDS011;60035;52.122;5.406;2024-02-16T04:35:39;8.05;;;3.05;;
72156;SDS011;60035;52.122;5.406;2024-02-16T04:38:13;9.35;;;3.80;;
72156;SDS011;60035;52.122;5.406;2024-02-16T04:40:48;8.13;;;2.88;;
72156;SDS011;60035;52.122;5.406;2024-02-16T04:43:19;7.63;;;2.90;;
72156;SDS011;60035;52.122;5.406;2024-02-16T04:45:50;6.03;;;2.40;;
72156;SDS011;60035;52.122;5.406;2024-02-16T04:48:22;9.10;;;2.85;;
72156;SDS011;60035;52.122;5.406;2024-02-16T04:50:53;10.18;;;3.47;;
72156;SDS011;60035;52.122;5.406;2024-02-16T04:53:25;8.90;;;2.58;;
72156;SDS011;60035;52.122;5.406;2024-02-16T04:55:59;7.80;;;3.17;;
72156;SDS011;60035;52.122;5.406;2024-02-16T04:58:32;7.85;;;2.85;;
72156;SDS011;60035;52.122;5.406;2024-02-16T05:01:04;6.88;;;3.03;;
72156;SDS011;60035;52.122;5.406;2024-02-16T05:03:35;9.15;;;3.47;;
72156;SDS011;60035;52.122;5.406;2024-02-16T05:06:07;9.35;;;3.38;;
72156;SDS011;60035;52.122;5.406;2024-02-16T05:08:39;9.80;;;2.70;;
72156;SDS011;60035;52.122;5.406;2024-02-16T05:11:13;7.70;;;3.10;;
72156;SDS011;60035;52.122;5.406;2024-02-16T05:13:45;9.70;;;3.50;;
72156;SDS011;60035;52.122;5.406;2024-02-16T05:16:16;7.13;;;2.65;;
72156;SDS011;60035;52.122;5.406;2024-02-16T05:18:47;7.80;;;3.20;;
72156;SDS011;60035;52.122;5.406;2024-02-16T05:21:19;11.52;;;3.50;;
72156;SDS011;60035;52.122;5.406;2024-02-16T05:23:50;7.22;;;3.38;;
72156;SDS011;60035;52.122;5.406;2024-02-16T05:26:25;9.07;;;3.95;;
72156;SDS011;60035;52.122;5.406;2024-02-16T05:28:56;9.00;;;4.60;;
72156;SDS011;60035;52.122;5.406;2024-02-16T05:31:28;9.65;;;3.92;;
72156;SDS011;60035;52.122;5.406;2024-02-16T05:33:59;7.85;;;3.55;;
72156;SDS011;60035;52.122;5.406;2024-02-16T05:36:31;6.63;;;3.10;;
72156;SDS011;60035;52.122;5.406;2024-02-16T05:39:03;7.78;;;3.42;;
72156;SDS011;60035;52.122;5.406;2024-02-16T05:41:54;7.78;;;3.00;;
72156;SDS011;60035;52.122;5.406;2024-02-16T05:44:26;9.70;;;3.33;;
72156;SDS011;60035;52.122;5.406;2024-02-16T05:46:59;11.05;;;3.17;;
72156;SDS011;60035;52.122;5.406;2024-02-16T05:49:31;9.38;;;3.25;;
72156;SDS011;60035;52.122;5.406;2024-02-16T05:52:02;8.43;;;3.33;;
72156;SDS011;60035;52.122;5.406;2024-02-16T05:54:48;8.38;;;2.72;;
72156;SDS011;60035;52.122;5.406;2024-02-16T05:57:22;7.00;;;2.92;;
72156;SDS011;60035;52.122;5.406;2024-02-16T05:59:54;7.75;;;3.40;;
72156;SDS011;60035;52.122;5.406;2024-02-16T06:02:28;7.90;;;3.83;;
72156;SDS011;60035;52.122;5.406;2024-02-16T06:04:59;7.95;;;3.17;;
72156;SDS011;60035;52.122;5.406;2024-02-16T06:07:30;8.32;;;3.67;;
72156;SDS011;60035;52.122;5.406;2024-02-16T06:10:03;8.68;;;3.33;;
72156;SDS011;60035;52.122;5.406;2024-02-16T06:12:41;9.55;;;2.92;;
72156;SDS011;60035;52.122;5.406;2024-02-16T06:15:13;8.35;;;3.13;;
72156;SDS011;60035;52.122;5.406;2024-02-16T06:17:44;7.63;;;2.65;;
72156;SDS011;60035;52.122;5.406;2024-02-16T06:20:16;9.23;;;3.60;;
72156;SDS011;60035;52.122;5.406;2024-02-16T06:22:48;10.13;;;3.88;;
72156;SDS011;60035;52.122;5.406;2024-02-16T06:25:19;7.15;;;2.67;;
72156;SDS011;60035;52.122;5.406;2024-02-16T06:27:53;9.90;;;2.80;;
72156;SDS011;60035;52.122;5.406;2024-02-16T06:30:24;8.93;;;2.58;;
72156;SDS011;60035;52.122;5.406;2024-02-16T06:32:56;6.30;;;2.45;;
72156;SDS011;60035;52.122;5.406;2024-02-16T06:35:28;8.15;;;2.95;;
72156;SDS011;60035;52.122;5.406;2024-02-16T06:38:00;8.50;;;2.70;;
72156;SDS011;60035;52.122;5.406;2024-02-16T06:40:31;6.38;;;2.38;;
72156;SDS011;60035;52.122;5.406;2024-02-16T06:43:05;6.72;;;2.08;;
72156;SDS011;60035;52.122;5.406;2024-02-16T06:45:36;7.05;;;2.50;;
72156;SDS011;60035;52.122;5.406;2024-02-16T06:48:08;7.40;;;2.70;;
72156;SDS011;60035;52.122;5.406;2024-02-16T06:50:40;8.57;;;3.20;;
72156;SDS011;60035;52.122;5.406;2024-02-16T06:53:11;7.18;;;2.47;;
72156;SDS011;60035;52.122;5.406;2024-02-16T06:55:42;6.55;;;2.30;;
72156;SDS011;60035;52.122;5.406;2024-02-16T06:58:16;7.97;;;2.17;;
72156;SDS011;60035;52.122;5.406;2024-02-16T07:00:48;7.55;;;2.30;;
72156;SDS011;60035;52.122;5.406;2024-02-16T07:03:19;8.02;;;3.00;;
72156;SDS011;60035;52.122;5.406;2024-02-16T07:05:51;7.07;;;2.78;;
72156;SDS011;60035;52.122;5.406;2024-02-16T07:08:22;9.15;;;2.70;;
72156;SDS011;60035;52.122;5.406;2024-02-16T07:10:55;6.93;;;2.90;;
72156;SDS011;60035;52.122;5.406;2024-02-16T07:13:29;8.10;;;2.80;;
72156;SDS011;60035;52.122;5.406;2024-02-16T07:16:00;8.57;;;3.15;;
72156;SDS011;60035;52.122;5.406;2024-02-16T07:18:33;7.57;;;3.00;;
72156;SDS011;60035;52.122;5.406;2024-02-16T07:21:05;11.05;;;4.28;;
72156;SDS011;60035;52.122;5.406;2024-02-16T07:23:37;7.68;;;3.13;;
72156;SDS011;60035;52.122;5.406;2024-02-16T07:26:08;9.45;;;3.17;;
72156;SDS011;60035;52.122;5.406;2024-02-16T07:28:43;8.75;;;3.33;;
72156;SDS011;60035;52.122;5.406;2024-02-16T07:31:15;8.90;;;2.95;;
72156;SDS011;60035;52.122;5.406;2024-02-16T07:33:46;7.32;;;2.78;;
72156;SDS011;60035;52.122;5.406;2024-02-16T07:36:18;8.60;;;3.10;;
72156;SDS011;60035;52.122;5.406;2024-02-16T07:38:49;7.95;;;2.72;;
72156;SDS011;60035;52.122;5.406;2024-02-16T07:41:21;8.88;;;2.80;;
72156;SDS011;60035;52.122;5.406;2024-02-16T07:43:55;7.68;;;2.50;;
72156;SDS011;60035;52.122;5.406;2024-02-16T07:46:26;7.53;;;2.85;;
72156;SDS011;60035;52.122;5.406;2024-02-16T07:49:02;10.50;;;3.70;;
72156;SDS011;60035;52.122;5.406;2024-02-16T07:51:34;6.47;;;2.58;;
72156;SDS011;60035;52.122;5.406;2024-02-16T07:54:05;8.13;;;2.67;;
72156;SDS011;60035;52.122;5.406;2024-02-16T07:56:37;7.20;;;3.03;;
72156;SDS011;60035;52.122;5.406;2024-02-16T07:59:11;8.40;;;2.83;;
72156;SDS011;60035;52.122;5.406;2024-02-16T08:01:43;10.93;;;3.00;;
72156;SDS011;60035;52.122;5.406;2024-02-16T08:04:14;9.48;;;3.40;;
72156;SDS011;60035;52.122;5.406;2024-02-16T08:06:46;7.78;;;2.83;;
72156;SDS011;60035;52.122;5.406;2024-02-16T08:09:17;7.93;;;2.65;;
72156;SDS011;60035;52.122;5.406;2024-02-16T08:11:49;8.98;;;2.78;;
72156;SDS011;60035;52.122;5.406;2024-02-16T08:14:23;8.75;;;2.75;;
72156;SDS011;60035;52.122;5.406;2024-02-16T08:16:54;6.57;;;2.45;;
72156;SDS011;60035;52.122;5.406;2024-02-16T08:19:38;9.48;;;3.63;;
72156;SDS011;60035;52.122;5.406;2024-02-16T08:22:10;9.23;;;3.15;;
72156;SDS011;60035;52.122;5.406;2024-02-16T08:24:41;8.82;;;3.10;;
72156;SDS011;60035;52.122;5.406;2024-02-16T08:27:13;6.63;;;3.30;;
72156;SDS011;60035;52.122;5.406;2024-02-16T08:29:47;7.22;;;2.58;;
72156;SDS011;60035;52.122;5.406;2024-02-16T08:32:19;7.63;;;3.10;;
72156;SDS011;60035;52.122;5.406;2024-02-16T08:34:50;9.75;;;2.97;;
72156;SDS011;60035;52.122;5.406;2024-02-16T08:37:23;9.32;;;2.88;;
72156;SDS011;60035;52.122;5.406;2024-02-16T08:39:55;8.73;;;2.95;;
72156;SDS011;60035;52.122;5.406;2024-02-16T08:42:26;10.68;;;2.72;;
72156;SDS011;60035;52.122;5.406;2024-02-16T08:45:01;7.40;;;2.90;;
72156;SDS011;60035;52.122;5.406;2024-02-16T08:47:33;9.73;;;2.85;;
72156;SDS011;60035;52.122;5.406;2024-02-16T08:50:06;7.90;;;2.90;;
72156;SDS011;60035;52.122;5.406;2024-02-16T08:52:38;9.80;;;3.80;;
72156;SDS011;60035;52.122;5.406;2024-02-16T08:55:11;8.50;;;2.92;;
72156;SDS011;60035;52.122;5.406;2024-02-16T08:57:43;7.53;;;2.95;;
72156;SDS011;60035;52.122;5.406;2024-02-16T09:00:18;11.77;;;2.88;;
72156;SDS011;60035;52.122;5.406;2024-02-16T09:02:50;7.28;;;2.80;;
72156;SDS011;60035;52.122;5.406;2024-02-16T09:05:22;9.23;;;2.90;;
72156;SDS011;60035;52.122;5.406;2024-02-16T09:07:53;7.32;;;2.83;;
72156;SDS011;60035;52.122;5.406;2024-02-16T09:10:25;7.78;;;2.92;;
72156;SDS011;60035;52.122;5.406;2024-02-16T09:12:57;12.60;;;3.60;;
72156;SDS011;60035;52.122;5.406;2024-02-16T09:15:31;9.60;;;3.20;;
72156;SDS011;60035;52.122;5.406;2024-02-16T09:18:04;8.40;;;3.10;;
72156;SDS011;60035;52.122;5.406;2024-02-16T09:20:36;10.55;;;3.45;;
72156;SDS011;60035;52.122;5.406;2024-02-16T09:23:07;9.38;;;3.40;;
72156;SDS011;60035;52.122;5.406;2024-02-16T09:25:38;7.60;;;3.10;;
72156;SDS011;60035;52.122;5.406;2024-02-16T09:28:11;9.30;;;3.40;;
72156;SDS011;60035;52.122;5.406;2024-02-16T09:31:05;7.53;;;3.20;;
72156;SDS011;60035;52.122;5.406;2024-02-16T09:33:37;9.55;;;3.45;;
72156;SDS011;60035;52.122;5.406;2024-02-16T09:36:10;8.30;;;3.53;;
72156;SDS011;60035;52.122;5.406;2024-02-16T09:38:42;11.35;;;3.30;;
72156;SDS011;60035;52.122;5.406;2024-02-16T09:41:13;8.68;;;3.40;;
72156;SDS011;60035;52.122;5.406;2024-02-16T09:43:47;10.15;;;4.47;;
72156;SDS011;60035;52.122;5.406;2024-02-16T09:46:23;11.30;;;3.95;;
72156;SDS011;60035;52.122;5.406;2024-02-16T09:48:57;9.57;;;3.67;;
72156;SDS011;60035;52.122;5.406;2024-02-16T09:51:35;10.48;;;4.70;;
72156;SDS011;60035;52.122;5.406;2024-02-16T09:54:07;9.40;;;4.30;;
72156;SDS011;60035;52.122;5.406;2024-02-16T09:56:39;9.55;;;3.88;;
72156;SDS011;60035;52.122;5.406;2024-02-16T09:59:12;10.95;;;3.50;;
72156;SDS011;60035;52.122;5.406;2024-02-16T10:01:46;9.85;;;4.00;;
72156;SDS011;60035;52.122;5.406;2024-02-16T10:04:17;9.05;;;3.70;;
72156;SDS011;60035;52.122;5.406;2024-02-16T10:06:48;9.20;;;3.88;;
72156;SDS011;60035;52.122;5.406;2024-02-16T10:09:23;11.07;;;4.40;;
72156;SDS011;60035;52.122;5.406;2024-02-16T10:11:57;9.93;;;3.88;;
72156;SDS011;60035;52.122;5.406;2024-02-16T10:14:28;10.52;;;3.70;;
72156;SDS011;60035;52.122;5.406;2024-02-16T10:17:03;11.00;;;4.22;;
72156;SDS011;60035;52.122;5.406;2024-02-16T10:19:37;8.95;;;4.05;;
72156;SDS011;60035;52.122;5.406;2024-02-16T10:22:10;10.32;;;4.65;;
72156;SDS011;60035;52.122;5.406;2024-02-16T10:24:43;13.02;;;4.10;;
72156;SDS011;60035;52.122;5.406;2024-02-16T10:27:14;10.63;;;4.38;;
72156;SDS011;60035;52.122;5.406;2024-02-16T10:29:47;11.13;;;4.88;;
72156;SDS011;60035;52.122;5.406;2024-02-16T10:32:22;10.48;;;4.25;;
72156;SDS011;60035;52.122;5.406;2024-02-16T10:34:54;11.32;;;5.25;;
72156;SDS011;60035;52.122;5.406;2024-02-16T10:37:26;10.93;;;4.30;;
72156;SDS011;60035;52.122;5.406;2024-02-16T10:39:58;10.68;;;4.50;;
72156;SDS011;60035;52.122;5.406;2024-02-16T10:42:35;11.05;;;4.80;;
72156;SDS011;60035;52.122;5.406;2024-02-16T10:45:09;12.88;;;4.68;;
72156;SDS011;60035;52.122;5.406;2024-02-16T10:47:45;13.15;;;4.60;;
72156;SDS011;60035;52.122;5.406;2024-02-16T10:50:17;12.10;;;5.38;;
72156;SDS011;60035;52.122;5.406;2024-02-16T10:52:49;11.15;;;4.47;;
72156;SDS011;60035;52.122;5.406;2024-02-16T10:55:22;15.82;;;5.55;;
72156;SDS011;60035;52.122;5.406;2024-02-16T10:57:55;11.48;;;4.75;;
72156;SDS011;60035;52.122;5.406;2024-02-16T11:00:27;11.55;;;5.10;;
72156;SDS011;60035;52.122;5.406;2024-02-16T11:03:02;15.00;;;5.68;;
72156;SDS011;60035;52.122;5.406;2024-02-16T11:05:34;10.57;;;4.63;;
72156;SDS011;60035;52.122;5.406;2024-02-16T11:08:11;13.60;;;5.47;;
72156;SDS011;60035;52.122;5.406;2024-02-16T11:10:53;14.60;;;5.97;;
72156;SDS011;60035;52.122;5.406;2024-02-16T11:13:25;15.95;;;6.57;;
72156;SDS011;60035;52.122;5.406;2024-02-16T11:16:06;14.80;;;7.10;;
72156;SDS011;60035;52.122;5.406;2024-02-16T11:18:42;12.57;;;6.15;;
72156;SDS011;60035;52.122;5.406;2024-02-16T11:23:53;14.23;;;5.90;;
72156;SDS011;60035;52.122;5.406;2024-02-16T11:26:41;11.68;;;5.57;;
72156;SDS011;60035;52.122;5.406;2024-02-16T11:29:16;12.43;;;6.72;;
72156;SDS011;60035;52.122;5.406;2024-02-16T11:31:48;12.25;;;6.05;;
72156;SDS011;60035;52.122;5.406;2024-02-16T11:34:24;12.32;;;6.93;;
72156;SDS011;60035;52.122;5.406;2024-02-16T11:36:56;12.27;;;6.63;;
72156;SDS011;60035;52.122;5.406;2024-02-16T11:39:28;14.40;;;6.45;;
72156;SDS011;60035;52.122;5.406;2024-02-16T11:42:03;12.63;;;6.65;;
72156;SDS011;60035;52.122;5.406;2024-02-16T11:44:38;12.32;;;6.47;;
72156;SDS011;60035;52.122;5.406;2024-02-16T11:47:22;13.45;;;7.00;;
72156;SDS011;60035;52.122;5.406;2024-02-16T11:50:06;15.32;;;7.00;;
72156;SDS011;60035;52.122;5.406;2024-02-16T11:52:41;13.75;;;7.00;;
72156;SDS011;60035;52.122;5.406;2024-02-16T11:55:12;13.43;;;7.07;;
72156;SDS011;60035;52.122;5.406;2024-02-16T11:57:44;13.07;;;7.32;;
72156;SDS011;60035;52.122;5.406;2024-02-16T12:00:18;12.52;;;6.38;;
72156;SDS011;60035;52.122;5.406;2024-02-16T12:02:58;14.77;;;6.63;;
72156;SDS011;60035;52.122;5.406;2024-02-16T12:05:32;13.80;;;6.80;;
72156;SDS011;60035;52.122;5.406;2024-02-16T12:08:05;18.05;;;6.93;;
72156;SDS011;60035;52.122;5.406;2024-02-16T12:10:37;16.38;;;6.85;;
72156;SDS011;60035;52.122;5.406;2024-02-16T12:13:09;13.93;;;6.72;;
72156;SDS011;60035;52.122;5.406;2024-02-16T12:15:40;15.77;;;6.82;;
72156;SDS011;60035;52.122;5.406;2024-02-16T12:18:18;14.60;;;6.90;;
72156;SDS011;60035;52.122;5.406;2024-02-16T12:21:03;13.55;;;6.35;;
72156;SDS011;60035;52.122;5.406;2024-02-16T12:23:36;13.43;;;5.15;;
72156;SDS011;60035;52.122;5.406;2024-02-16T12:26:08;11.50;;;5.68;;
72156;SDS011;60035;52.122;5.406;2024-02-16T12:28:40;14.10;;;5.63;;
72156;SDS011;60035;52.122;5.406;2024-02-16T12:31:17;10.77;;;4.85;;
72156;SDS011;60035;52.122;5.406;2024-02-16T12:33:49;10.65;;;4.88;;
72156;SDS011;60035;52.122;5.406;2024-02-16T12:36:23;11.43;;;4.63;;
72156;SDS011;60035;52.122;5.406;2024-02-16T12:38:55;8.52;;;3.05;;
72156;SDS011;60035;52.122;5.406;2024-02-16T12:41:26;6.38;;;2.53;;
72156;SDS011;60035;52.122;5.406;2024-02-16T12:43:58;9.02;;;2.72;;
72156;SDS011;60035;52.122;5.406;2024-02-16T12:46:29;6.18;;;2.40;;
72156;SDS011;60035;52.122;5.406;2024-02-16T12:49:01;5.80;;;2.35;;
72156;SDS011;60035;52.122;5.406;2024-02-16T12:51:35;6.75;;;2.70;;
72156;SDS011;60035;52.122;5.406;2024-02-16T12:54:07;6.55;;;2.55;;
72156;SDS011;60035;52.122;5.406;2024-02-16T12:56:41;6.20;;;2.63;;
72156;SDS011;60035;52.122;5.406;2024-02-16T12:59:12;6.82;;;2.53;;
72156;SDS011;60035;52.122;5.406;2024-02-16T13:01:44;5.88;;;2.15;;
72156;SDS011;60035;52.122;5.406;2024-02-16T13:04:17;5.80;;;1.90;;
72156;SDS011;60035;52.122;5.406;2024-02-16T13:06:53;5.18;;;2.35;;
72156;SDS011;60035;52.122;5.406;2024-02-16T13:09:24;7.72;;;2.70;;
72156;SDS011;60035;52.122;5.406;2024-02-16T13:11:56;5.95;;;2.40;;
72156;SDS011;60035;52.122;5.406;2024-02-16T13:14:27;6.32;;;2.47;;
72156;SDS011;60035;52.122;5.406;2024-02-16T13:16:59;5.80;;;2.13;;
72156;SDS011;60035;52.122;5.406;2024-02-16T13:19:30;5.72;;;2.28;;
72156;SDS011;60035;52.122;5.406;2024-02-16T13:22:04;6.15;;;2.30;;
72156;SDS011;60035;52.122;5.406;2024-02-16T13:24:36;5.40;;;1.70;;
72156;SDS011;60035;52.122;5.406;2024-02-16T13:27:08;4.53;;;1.77;;
72156;SDS011;60035;52.122;5.406;2024-02-16T13:29:39;5.50;;;2.25;;
72156;SDS011;60035;52.122;5.406;2024-02-16T13:32:11;6.72;;;2.35;;
72156;SDS011;60035;52.122;5.406;2024-02-16T13:34:42;7.15;;;2.38;;
72156;SDS011;60035;52.122;5.406;2024-02-16T13:37:16;8.15;;;1.88;;
72156;SDS011;60035;52.122;5.406;2024-02-16T13:39:48;4.72;;;1.63;;
72156;SDS011;60035;52.122;5.406;2024-02-16T13:42:20;5.00;;;1.70;;
72156;SDS011;60035;52.122;5.406;2024-02-16T13:44:51;5.32;;;1.65;;
72156;SDS011;60035;52.122;5.406;2024-02-16T13:47:23;4.30;;;1.77;;
72156;SDS011;60035;52.122;5.406;2024-02-16T13:49:54;5.03;;;2.17;;
72156;SDS011;60035;52.122;5.406;2024-02-16T13:52:30;3.58;;;1.50;;
72156;SDS011;60035;52.122;5.406;2024-02-16T13:55:01;4.20;;;1.63;;
72156;SDS011;60035;52.122;5.406;2024-02-16T13:57:33;4.88;;;2.05;;
72156;SDS011;60035;52.122;5.406;2024-02-16T14:00:07;5.10;;;1.60;;
72156;SDS011;60035;52.122;5.406;2024-02-16T14:02:39;6.15;;;2.55;;
72156;SDS011;60035;52.122;5.406;2024-02-16T14:05:14;6.45;;;2.28;;
72156;SDS011;60035;52.122;5.406;2024-02-16T14:07:48;9.10;;;2.78;;
72156;SDS011;60035;52.122;5.406;2024-02-16T14:10:27;5.10;;;1.83;;
72156;SDS011;60035;52.122;5.406;2024-02-16T14:12:59;5.78;;;2.20;;
72156;SDS011;60035;52.122;5.406;2024-02-16T14:15:30;6.60;;;2.67;;
72156;SDS011;60035;52.122;5.406;2024-02-16T14:18:02;8.18;;;2.35;;
72156;SDS011;60035;52.122;5.406;2024-02-16T14:20:43;7.57;;;2.60;;
72156;SDS011;60035;52.122;5.406;2024-02-16T14:23:17;4.93;;;1.73;;
72156;SDS011;60035;52.122;5.406;2024-02-16T14:25:49;7.53;;;1.67;;
72156;SDS011;60035;52.122;5.406;2024-02-16T14:28:20;6.43;;;2.50;;
72156;SDS011;60035;52.122;5.406;2024-02-16T14:30:52;6.50;;;2.88;;
72156;SDS011;60035;52.122;5.406;2024-02-16T14:33:24;6.32;;;2.10;;
72156;SDS011;60035;52.122;5.406;2024-02-16T14:36:01;5.38;;;2.10;;
72156;SDS011;60035;52.122;5.406;2024-02-16T14:38:35;6.28;;;2.70;;
72156;SDS011;60035;52.122;5.406;2024-02-16T14:41:07;5.78;;;2.10;;
72156;SDS011;60035;52.122;5.406;2024-02-16T14:43:38;7.82;;;3.30;;
72156;SDS011;60035;52.122;5.406;2024-02-16T14:46:10;6.25;;;2.78;;
72156;SDS011;60035;52.122;5.406;2024-02-16T14:48:42;7.68;;;3.13;;
72156;SDS011;60035;52.122;5.406;2024-02-16T14:51:16;7.28;;;2.85;;
72156;SDS011;60035;52.122;5.406;2024-02-16T14:53:50;8.10;;;2.40;;
72156;SDS011;60035;52.122;5.406;2024-02-16T14:56:21;6.00;;;2.13;;
72156;SDS011;60035;52.122;5.406;2024-02-16T14:58:52;6.38;;;2.30;;
72156;SDS011;60035;52.122;5.406;2024-02-16T15:01:24;7.03;;;2.80;;
72156;SDS011;60035;52.122;5.406;2024-02-16T15:03:55;6.45;;;2.40;;
72156;SDS011;60035;52.122;5.406;2024-02-16T15:06:27;6.90;;;2.78;;
72156;SDS011;60035;52.122;5.406;2024-02-16T15:09:03;6.38;;;2.58;;
72156;SDS011;60035;52.122;5.406;2024-02-16T15:11:35;6.20;;;2.45;;
72156;SDS011;60035;52.122;5.406;2024-02-16T15:14:07;8.13;;;2.63;;
72156;SDS011;60035;52.122;5.406;2024-02-16T15:16:44;7.03;;;3.03;;
72156;SDS011;60035;52.122;5.406;2024-02-16T15:19:15;6.47;;;2.67;;
72156;SDS011;60035;52.122;5.406;2024-02-16T15:21:47;7.47;;;3.55;;